Time;durP1;ratioP1;P1;durP2;ratioP2;P2;SDS_P1;SDS_P2;PMS_P1;PMS_P2;Temp;Humidity;BMP_temperature;BMP_pressure;BME280_temperature;BME280_humidity;BME280_pressure;Samples;Min_cycle;Max_cycle;Signal;HPM_P1;HPM_P2
2022/05/14 00:01:47;;;;;;;;;;;19.40;64.20;;;;;;5032932;28;809;-69
2022/05/14 00:04:13;;;;;;;;;;;19.40;64.20;;;;;;5033695;28;1079;-68
2022/05/14 00:06:38;;;;;;;;;;;19.30;64.10;;;;;;5028160;28;1133;-68
2022/05/14 00:09:05;;;;;;;;;;;19.30;64.10;;;;;;5034640;28;1274;-68
2022/05/14 00:14:15;;;;;;;;;;;19.30;64.10;;;;;;5037455;28;730;-68
2022/05/14 00:16:40;;;;;;;;;;;19.40;64.20;;;;;;5034254;28;1967;-68
2022/05/14 00:19:06;;;;;;;;;;;19.30;64.10;;;;;;5051375;28;1406;-68
2022/05/14 00:21:32;;;;;;;;;;;19.30;64.10;;;;;;5035731;28;1180;-68
2022/05/14 00:23:58;;;;;;;;;;;19.30;64.20;;;;;;5031342;28;872;-68
2022/05/14 00:26:24;;;;;;;;;;;19.30;64.10;;;;;;5038558;28;1127;-68
2022/05/14 00:28:49;;;;;;;;;;;19.30;64.10;;;;;;5034315;28;1205;-69
2022/05/14 00:31:16;;;;;;;;;;;19.40;64.20;;;;;;5051206;28;728;-68
2022/05/14 00:33:41;;;;;;;;;;;19.30;64.10;;;;;;5052113;28;836;-69
2022/05/14 00:36:06;;;;;;;;;;;19.30;64.90;;;;;;5034321;28;1961;-68
2022/05/14 00:38:32;;;;;;;;;;;19.30;64.10;;;;;;5050478;28;1191;-68
2022/05/14 00:40:58;;;;;;;;;;;19.30;64.10;;;;;;5050198;28;987;-68
2022/05/14 00:43:25;;;;;;;;;;;19.30;64.10;;;;;;5052089;28;813;-68
2022/05/14 00:45:54;;;;;;;;;;;19.30;64.10;;;;;;5052546;28;840;-68
2022/05/14 00:48:20;;;;;;;;;;;19.30;64.10;;;;;;5038234;28;1267;-69
2022/05/14 00:50:49;;;;;;;;;;;19.30;64.10;;;;;;5046558;28;1259;-68
2022/05/14 00:53:16;;;;;;;;;;;19.30;64.20;;;;;;5028128;28;1294;-69
2022/05/14 00:55:42;;;;;;;;;;;19.30;64.10;;;;;;5044918;28;1898;-68
2022/05/14 00:58:08;;;;;;;;;;;19.30;64.10;;;;;;5026765;28;1287;-68
2022/05/14 01:00:34;;;;;;;;;;;19.30;64.20;;;;;;5043482;28;1298;-68
2022/05/14 01:02:59;;;;;;;;;;;19.30;64.20;;;;;;5026046;28;1323;-69
2022/05/14 01:05:24;;;;;;;;;;;19.30;64.20;;;;;;5045149;28;1211;-71
2022/05/14 01:07:50;;;;;;;;;;;19.30;64.20;;;;;;5045276;28;1342;-68
2022/05/14 01:10:18;;;;;;;;;;;19.30;64.20;;;;;;5041725;28;1310;-68
2022/05/14 01:12:44;;;;;;;;;;;19.30;64.20;;;;;;5054486;28;853;-68
2022/05/14 01:15:14;;;;;;;;;;;19.30;64.20;;;;;;5055038;28;817;-69
2022/05/14 01:17:40;;;;;;;;;;;19.30;64.20;;;;;;5053581;28;1902;-70
2022/05/14 01:20:05;;;;;;;;;;;19.30;64.20;;;;;;5039530;28;1119;-68
2022/05/14 01:22:44;;;;;;;;;;;19.30;64.10;;;;;;5055659;28;876;-68
2022/05/14 01:28:05;;;;;;;;;;;19.30;64.20;;;;;;5034586;28;1231;-68
2022/05/14 01:30:30;;;;;;;;;;;19.30;64.20;;;;;;5035270;28;870;-68
2022/05/14 01:33:05;;;;;;;;;;;19.30;64.20;;;;;;5035969;28;1007;-68
2022/05/14 01:35:31;;;;;;;;;;;19.30;64.20;;;;;;5002603;28;1927;-69
2022/05/14 01:37:57;;;;;;;;;;;19.30;64.20;;;;;;5018027;28;1211;-68
2022/05/14 01:40:22;;;;;;;;;;;19.30;64.20;;;;;;5034829;28;817;-69
2022/05/14 01:42:48;;;;;;;;;;;19.30;64.20;;;;;;5017798;28;984;-69
2022/05/14 01:45:13;;;;;;;;;;;19.30;64.20;;;;;;5035691;28;920;-69
2022/05/14 01:47:39;;;;;;;;;;;19.30;64.20;;;;;;5035320;28;1180;-68
2022/05/14 01:50:04;;;;;;;;;;;19.30;64.20;;;;;;5034843;28;841;-68
2022/05/14 01:52:30;;;;;;;;;;;19.30;64.20;;;;;;5034643;28;913;-69
2022/05/14 01:54:55;;;;;;;;;;;19.30;64.20;;;;;;5035464;28;972;-68
2022/05/14 01:57:20;;;;;;;;;;;19.30;64.20;;;;;;5033913;28;1894;-67
2022/05/14 01:59:46;;;;;;;;;;;19.30;64.20;;;;;;5033667;28;2186;-67
2022/05/14 02:02:11;;;;;;;;;;;19.30;64.20;;;;;;5055047;28;1038;-69
2022/05/14 02:04:37;;;;;;;;;;;19.30;64.20;;;;;;5033967;28;1277;-70
2022/05/14 02:07:02;;;;;;;;;;;19.30;64.20;;;;;;5017235;28;1131;-70
2022/05/14 02:09:29;;;;;;;;;;;19.30;64.20;;;;;;5034230;28;1160;-70
2022/05/14 02:11:55;;;;;;;;;;;19.30;64.20;;;;;;5034935;28;852;-71
2022/05/14 02:14:20;;;;;;;;;;;19.30;64.20;;;;;;5035142;28;836;-71
2022/05/14 02:16:46;;;;;;;;;;;19.30;64.20;;;;;;5034673;28;1899;-71
2022/05/14 02:19:11;;;;;;;;;;;19.30;64.20;;;;;;5048603;28;1441;-72
2022/05/14 02:21:37;;;;;;;;;;;19.30;64.20;;;;;;5043992;28;1130;-72
2022/05/14 02:24:02;;;;;;;;;;;19.30;64.20;;;;;;5034737;28;888;-72
2022/05/14 02:26:28;;;;;;;;;;;19.30;64.20;;;;;;5042622;28;1132;-71
2022/05/14 02:28:53;;;;;;;;;;;19.30;64.20;;;;;;5053354;28;1255;-71
2022/05/14 02:31:19;;;;;;;;;;;19.30;64.20;;;;;;5052848;28;1003;-71
2022/05/14 02:33:44;;;;;;;;;;;19.30;64.20;;;;;;5054558;28;900;-71
2022/05/14 02:36:10;;;;;;;;;;;19.30;64.20;;;;;;5054310;28;1902;-71
2022/05/14 02:38:36;;;;;;;;;;;19.30;64.20;;;;;;5054169;28;1203;-72
2022/05/14 02:41:02;;;;;;;;;;;19.30;64.20;;;;;;5054299;28;700;-71
2022/05/14 02:43:28;;;;;;;;;;;19.30;64.20;;;;;;5054228;28;1019;-71
2022/05/14 02:45:53;;;;;;;;;;;19.30;64.20;;;;;;5054459;28;885;-70
2022/05/14 02:48:19;;;;;;;;;;;19.30;64.40;;;;;;5053099;28;1195;-71
2022/05/14 02:50:45;;;;;;;;;;;19.30;64.30;;;;;;5035386;28;1180;-71
2022/05/14 02:53:10;;;;;;;;;;;19.30;64.20;;;;;;5053242;28;959;-71
2022/05/14 02:55:36;;;;;;;;;;;19.30;64.20;;;;;;5054006;28;1936;-71
2022/05/14 02:58:01;;;;;;;;;;;19.30;64.20;;;;;;5053862;28;1243;-71
2022/05/14 03:00:26;;;;;;;;;;;19.30;64.20;;;;;;5045239;28;1561;-71
2022/05/14 03:02:52;;;;;;;;;;;19.30;65.00;;;;;;5054063;28;1011;-71
2022/05/14 03:05:19;;;;;;;;;;;19.30;64.20;;;;;;5054493;28;1206;-71
2022/05/14 03:07:44;;;;;;;;;;;19.30;64.20;;;;;;5035808;28;1444;-71
2022/05/14 03:10:10;;;;;;;;;;;19.30;64.20;;;;;;5052758;28;1023;-71
2022/05/14 03:12:35;;;;;;;;;;;19.30;64.20;;;;;;5052637;28;714;-71
2022/05/14 03:15:01;;;;;;;;;;;19.30;64.20;;;;;;5054191;28;1033;-70
2022/05/14 03:17:26;;;;;;;;;;;19.30;64.20;;;;;;5053552;28;1906;-70
2022/05/14 03:19:52;;;;;;;;;;;19.30;64.20;;;;;;5035876;28;949;-70
2022/05/14 03:22:18;;;;;;;;;;;19.30;64.20;;;;;;5053399;28;674;-70
2022/05/14 03:24:43;;;;;;;;;;;19.30;64.20;;;;;;5052597;28;1070;-70
2022/05/14 03:27:10;;;;;;;;;;;19.30;64.20;;;;;;5039853;28;1230;-70
2022/05/14 03:29:35;;;;;;;;;;;19.30;64.20;;;;;;5031448;28;1286;-70
2022/05/14 03:32:01;;;;;;;;;;;19.30;64.20;;;;;;5032243;28;841;-70
2022/05/14 03:34:26;;;;;;;;;;;19.30;64.20;;;;;;5033528;28;932;-69
2022/05/14 03:36:52;;;;;;;;;;;19.30;64.20;;;;;;5033384;28;1969;-70
2022/05/14 03:39:17;;;;;;;;;;;19.30;64.20;;;;;;5014922;28;1212;-69
2022/05/14 03:41:43;;;;;;;;;;;19.30;64.20;;;;;;5015632;28;885;-70
2022/05/14 03:44:08;;;;;;;;;;;19.30;64.20;;;;;;5032411;28;821;-70
2022/05/14 03:46:34;;;;;;;;;;;19.30;64.20;;;;;;5015551;28;1271;-70
2022/05/14 03:49:00;;;;;;;;;;;19.30;64.20;;;;;;5031903;28;1271;-69
2022/05/14 03:51:26;;;;;;;;;;;19.30;64.20;;;;;;5032003;28;896;-69
2022/05/14 03:53:51;;;;;;;;;;;19.30;64.30;;;;;;5032103;28;965;-69
2022/05/14 03:56:16;;;;;;;;;;;19.30;64.20;;;;;;5033126;28;1902;-69
2022/05/14 03:58:42;;;;;;;;;;;19.30;64.20;;;;;;5032877;28;1282;-69
2022/05/14 04:01:07;;;;;;;;;;;19.30;64.20;;;;;;5032555;28;872;-69
2022/05/14 04:03:33;;;;;;;;;;;19.30;64.20;;;;;;5033026;28;727;-69
2022/05/14 04:05:59;;;;;;;;;;;19.30;64.20;;;;;;5031537;28;893;-69
2022/05/14 04:08:25;;;;;;;;;;;19.30;64.30;;;;;;5032901;28;1275;-69
2022/05/14 04:10:50;;;;;;;;;;;19.30;64.20;;;;;;5032190;28;1098;-70
2022/05/14 04:13:16;;;;;;;;;;;19.30;64.20;;;;;;5031901;28;889;-70
2022/05/14 04:15:41;;;;;;;;;;;19.30;64.30;;;;;;5032698;28;1883;-70
2022/05/14 04:18:07;;;;;;;;;;;19.30;64.20;;;;;;5063089;22;3627;-68
2022/05/14 04:20:32;;;;;;;;;;;19.30;64.20;;;;;;5035212;28;957;-68
2022/05/14 04:22:57;;;;;;;;;;;19.30;64.20;;;;;;5032762;28;971;-67
2022/05/14 04:25:23;;;;;;;;;;;19.30;64.20;;;;;;5032927;28;773;-68
2022/05/14 04:27:49;;;;;;;;;;;19.30;64.20;;;;;;5045054;28;1998;-67
2022/05/14 04:30:14;;;;;;;;;;;19.30;64.30;;;;;;5043743;28;1781;-68
2022/05/14 04:32:40;;;;;;;;;;;19.30;64.20;;;;;;5050767;28;1939;-68
2022/05/14 04:35:06;;;;;;;;;;;19.30;64.30;;;;;;5049680;28;1291;-69
2022/05/14 04:37:31;;;;;;;;;;;19.30;64.20;;;;;;5051625;28;1972;-68
2022/05/14 04:39:57;;;;;;;;;;;19.30;64.30;;;;;;5050094;28;1294;-69
2022/05/14 04:42:22;;;;;;;;;;;19.30;64.30;;;;;;5051252;28;2162;-69
2022/05/14 04:44:47;;;;;;;;;;;19.30;64.20;;;;;;5051040;28;1173;-69
2022/05/14 04:47:14;;;;;;;;;;;19.30;64.30;;;;;;5051571;28;1083;-69
2022/05/14 04:49:40;;;;;;;;;;;19.30;64.30;;;;;;5050637;28;1281;-69
2022/05/14 04:52:06;;;;;;;;;;;19.30;64.30;;;;;;5050245;28;1298;-69
2022/05/14 04:54:31;;;;;;;;;;;19.30;64.30;;;;;;5051844;28;820;-69
2022/05/14 04:56:56;;;;;;;;;;;19.30;64.20;;;;;;5050174;28;1890;-69
2022/05/14 04:59:22;;;;;;;;;;;19.30;64.30;;;;;;5065726;28;1235;-70
2022/05/14 05:04:32;;;;;;;;;;;19.30;64.30;;;;;;5051772;28;624;-69
2022/05/14 05:06:58;;;;;;;;;;;19.30;64.30;;;;;;5034007;28;1159;-70
2022/05/14 05:09:23;;;;;;;;;;;19.30;64.30;;;;;;5050273;28;1207;-70
2022/05/14 05:11:50;;;;;;;;;;;19.30;64.30;;;;;;5052257;28;884;-70
2022/05/14 05:14:16;;;;;;;;;;;19.30;64.30;;;;;;5051798;28;769;-69
2022/05/14 05:16:41;;;;;;;;;;;19.30;64.30;;;;;;5051191;28;1894;-68
2022/05/14 05:19:06;;;;;;;;;;;19.30;64.30;;;;;;5061092;28;1276;-68
2022/05/14 05:21:32;;;;;;;;;;;19.30;64.30;;;;;;5086197;28;1146;-68
2022/05/14 05:23:57;;;;;;;;;;;19.30;64.30;;;;;;5090871;28;1074;-66
2022/05/14 05:26:23;;;;;;;;;;;19.30;64.30;;;;;;5083843;28;1103;-67
2022/05/14 05:28:49;;;;;;;;;;;19.30;64.30;;;;;;5070756;28;1321;-67
2022/05/14 05:31:15;;;;;;;;;;;19.30;64.40;;;;;;5070593;28;836;-66
2022/05/14 05:33:40;;;;;;;;;;;19.30;64.40;;;;;;5074515;28;844;-67
2022/05/14 05:36:07;;;;;;;;;;;19.30;64.40;;;;;;5056746;28;1914;-66
2022/05/14 05:38:33;;;;;;;;;;;19.30;64.40;;;;;;5074651;28;1212;-68
2022/05/14 05:40:58;;;;;;;;;;;19.30;64.50;;;;;;5072959;28;1115;-68
2022/05/14 05:43:24;;;;;;;;;;;19.30;64.50;;;;;;5056478;28;911;-69
2022/05/14 05:45:50;;;;;;;;;;;19.30;64.50;;;;;;5074224;28;805;-67
2022/05/14 05:48:15;;;;;;;;;;;19.30;64.60;;;;;;5074560;28;1198;-70
2022/05/14 05:50:43;;;;;;;;;;;19.30;64.50;;;;;;5074525;28;813;-68
2022/05/14 05:53:08;;;;;;;;;;;19.30;64.40;;;;;;5056680;28;841;-68
2022/05/14 05:58:19;;;;;;;;;;;19.30;64.40;;;;;;5058820;28;1339;-68
2022/05/14 06:00:45;;;;;;;;;;;19.30;64.40;;;;;;5056544;28;820;-67
2022/05/14 06:03:11;;;;;;;;;;;19.30;64.40;;;;;;5056490;28;1545;-69
2022/05/14 06:05:37;;;;;;;;;;;19.30;64.50;;;;;;5074232;28;864;-70
2022/05/14 06:08:06;;;;;;;;;;;19.30;64.40;;;;;;5074196;28;1600;-69
2022/05/14 06:10:32;;;;;;;;;;;19.30;64.40;;;;;;5055562;28;787;-68
2022/05/14 06:12:58;;;;;;;;;;;19.30;64.40;;;;;;5074305;28;1014;-69
2022/05/14 06:15:24;;;;;;;;;;;19.30;64.40;;;;;;5073406;28;899;-67
2022/05/14 06:17:49;;;;;;;;;;;19.30;64.40;;;;;;5077176;28;1965;-67
2022/05/14 06:20:15;;;;;;;;;;;19.30;64.50;;;;;;5069705;28;1165;-66
2022/05/14 06:22:40;;;;;;;;;;;19.30;64.40;;;;;;5056251;28;836;-65
2022/05/14 06:25:06;;;;;;;;;;;19.30;64.40;;;;;;5073708;28;757;-65
2022/05/14 06:27:31;;;;;;;;;;;19.30;64.40;;;;;;5073051;28;1240;-67
2022/05/14 06:29:57;;;;;;;;;;;19.30;64.40;;;;;;5073065;28;1203;-68
2022/05/14 06:32:22;;;;;;;;;;;19.30;64.40;;;;;;5073757;28;900;-67
2022/05/14 06:34:48;;;;;;;;;;;19.30;64.40;;;;;;5073727;28;828;-67
2022/05/14 06:37:13;;;;;;;;;;;19.30;64.40;;;;;;5055574;28;1961;-67
2022/05/14 06:39:39;;;;;;;;;;;19.30;64.40;;;;;;5072755;28;1215;-67
2022/05/14 06:42:04;;;;;;;;;;;19.30;64.40;;;;;;5073435;28;1026;-67
2022/05/14 06:44:30;;;;;;;;;;;19.30;64.40;;;;;;5072877;28;945;-68
2022/05/14 06:46:55;;;;;;;;;;;19.30;64.40;;;;;;5055506;28;955;-69
2022/05/14 06:49:21;;;;;;;;;;;19.30;64.40;;;;;;5037091;28;8911;-68
2022/05/14 06:51:46;;;;;;;;;;;19.30;64.40;;;;;;5033464;28;947;-70
2022/05/14 06:54:12;;;;;;;;;;;19.30;64.40;;;;;;5034393;28;946;-69
2022/05/14 06:56:39;;;;;;;;;;;19.30;64.40;;;;;;5032545;28;1967;-70
2022/05/14 06:59:05;;;;;;;;;;;19.30;64.40;;;;;;5032492;28;1220;-69
2022/05/14 07:01:30;;;;;;;;;;;19.30;64.40;;;;;;5033217;28;2183;-69
2022/05/14 07:06:42;;;;;;;;;;;19.30;64.40;;;;;;5043639;28;985;-68
2022/05/14 07:09:09;;;;;;;;;;;19.30;64.40;;;;;;5032288;28;1197;-68
2022/05/14 07:11:35;;;;;;;;;;;19.30;64.40;;;;;;5032279;28;895;-68
2022/05/14 07:14:00;;;;;;;;;;;19.30;64.40;;;;;;5032710;28;1377;-68
2022/05/14 07:16:26;;;;;;;;;;;19.30;64.40;;;;;;5032706;28;1957;-68
2022/05/14 07:18:51;;;;;;;;;;;19.30;64.40;;;;;;5031985;28;1358;-68
2022/05/14 07:21:17;;;;;;;;;;;19.30;64.40;;;;;;5045822;28;1291;-68
2022/05/14 07:23:42;;;;;;;;;;;19.30;64.40;;;;;;5053618;28;827;-68
2022/05/14 07:26:08;;;;;;;;;;;19.30;64.40;;;;;;5048268;28;1134;-68
2022/05/14 07:28:34;;;;;;;;;;;19.30;64.40;;;;;;5033460;28;1204;-68
2022/05/14 07:31:03;;;;;;;;;;;19.30;64.40;;;;;;5031913;28;805;-68
2022/05/14 07:33:29;;;;;;;;;;;19.30;64.40;;;;;;5032249;28;939;-68
2022/05/14 07:35:55;;;;;;;;;;;19.30;64.40;;;;;;5032122;28;1910;-69
2022/05/14 07:38:20;;;;;;;;;;;19.30;64.40;;;;;;5032053;28;1194;-68
2022/05/14 07:40:45;;;;;;;;;;;19.30;64.40;;;;;;5031644;28;933;-68
2022/05/14 07:43:15;;;;;;;;;;;19.30;64.40;;;;;;5031833;28;885;-68
2022/05/14 07:45:42;;;;;;;;;;;19.30;64.40;;;;;;5032298;28;845;-69
2022/05/14 07:48:09;;;;;;;;;;;19.30;64.40;;;;;;5032053;28;1289;-68
2022/05/14 07:50:34;;;;;;;;;;;19.20;64.30;;;;;;5031554;28;916;-68
2022/05/14 07:53:00;;;;;;;;;;;19.30;64.40;;;;;;5032360;28;951;-68
2022/05/14 07:55:25;;;;;;;;;;;19.30;64.40;;;;;;5031788;28;868;-68
2022/05/14 07:57:50;;;;;;;;;;;19.20;64.40;;;;;;5032854;28;1961;-68
2022/05/14 08:00:16;;;;;;;;;;;19.30;64.40;;;;;;5026226;28;2261;-68
2022/05/14 08:02:42;;;;;;;;;;;19.30;64.40;;;;;;5032004;28;1602;-68
2022/05/14 08:05:09;;;;;;;;;;;19.20;64.30;;;;;;5031924;28;1617;-67
2022/05/14 08:07:34;;;;;;;;;;;19.30;64.40;;;;;;5033012;28;1475;-68
2022/05/14 08:10:00;;;;;;;;;;;19.30;64.40;;;;;;5030860;28;1503;-68
2022/05/14 08:12:25;;;;;;;;;;;19.30;64.40;;;;;;5031631;28;1568;-69
2022/05/14 08:14:51;;;;;;;;;;;19.30;64.40;;;;;;5032839;28;1022;-68
2022/05/14 08:17:16;;;;;;;;;;;19.30;64.40;;;;;;5031710;28;1894;-68
2022/05/14 08:19:42;;;;;;;;;;;19.30;64.40;;;;;;5033110;28;1406;-68
2022/05/14 08:24:52;;;;;;;;;;;19.30;64.40;;;;;;5052941;28;808;-68
2022/05/14 08:27:17;;;;;;;;;;;19.30;64.40;;;;;;5036284;28;1455;-68
2022/05/14 08:29:47;;;;;;;;;;;19.20;64.40;;;;;;5031005;28;1289;-68
2022/05/14 08:32:13;;;;;;;;;;;19.30;64.40;;;;;;5031529;28;884;-68
2022/05/14 08:34:38;;;;;;;;;;;19.20;64.40;;;;;;5031338;28;1152;-69
2022/05/14 08:37:04;;;;;;;;;;;19.30;64.40;;;;;;5032553;28;1957;-67
2022/05/14 08:39:29;;;;;;;;;;;19.30;64.40;;;;;;5030484;28;1289;-68
2022/05/14 08:41:55;;;;;;;;;;;19.30;64.40;;;;;;5029179;28;2083;-68
2022/05/14 08:44:25;;;;;;;;;;;19.30;64.50;;;;;;5031075;28;1798;-68
2022/05/14 08:46:52;;;;;;;;;;;19.30;64.40;;;;;;5031123;28;1597;-68
2022/05/14 08:49:21;;;;;;;;;;;19.30;64.50;;;;;;5030652;28;1411;-68
2022/05/14 08:51:50;;;;;;;;;;;19.30;64.40;;;;;;5032379;28;872;-69
2022/05/14 08:54:16;;;;;;;;;;;19.30;64.40;;;;;;5031380;28;861;-68
2022/05/14 08:56:47;;;;;;;;;;;19.30;64.50;;;;;;5030808;28;2181;-67
2022/05/14 08:59:33;;;;;;;;;;;19.30;64.40;;;;;;5031886;28;1612;-69
2022/05/14 09:02:12;;;;;;;;;;;19.30;64.50;;;;;;5032450;28;1618;-68
2022/05/14 09:04:38;;;;;;;;;;;19.20;64.40;;;;;;5031129;28;904;-67
2022/05/14 09:07:03;;;;;;;;;;;19.30;64.50;;;;;;5033684;28;896;-68
2022/05/14 09:09:29;;;;;;;;;;;19.20;64.40;;;;;;5035180;28;2008;-68
2022/05/14 09:11:58;;;;;;;;;;;19.30;64.50;;;;;;5035443;28;1113;-68
2022/05/14 09:14:29;;;;;;;;;;;19.30;64.50;;;;;;5034927;28;1086;-68
2022/05/14 09:16:58;;;;;;;;;;;19.20;64.40;;;;;;5035947;28;1894;-68
2022/05/14 09:19:27;;;;;;;;;;;19.30;64.50;;;;;;5034009;28;1367;-68
2022/05/14 09:21:56;;;;;;;;;;;19.20;64.40;;;;;;5054000;28;1261;-69
2022/05/14 09:24:26;;;;;;;;;;;19.30;64.40;;;;;;5050192;28;883;-68
2022/05/14 09:27:08;;;;;;;;;;;19.30;64.40;;;;;;5034395;28;1143;-69
2022/05/14 09:29:41;;;;;;;;;;;19.20;64.40;;;;;;5035610;28;1218;-68
2022/05/14 09:32:12;;;;;;;;;;;19.30;64.40;;;;;;5035984;28;782;-69
2022/05/14 09:34:37;;;;;;;;;;;19.30;64.50;;;;;;5034531;28;955;-68
2022/05/14 09:37:07;;;;;;;;;;;19.20;64.40;;;;;;5035595;28;1906;-68
2022/05/14 09:39:32;;;;;;;;;;;19.30;64.50;;;;;;5034986;28;1310;-68
2022/05/14 09:42:00;;;;;;;;;;;19.30;64.50;;;;;;5035799;28;821;-68
2022/05/14 09:44:26;;;;;;;;;;;19.20;64.40;;;;;;5034608;28;872;-68
2022/05/14 09:46:52;;;;;;;;;;;19.20;65.20;;;;;;5035517;28;1036;-68
2022/05/14 09:49:19;;;;;;;;;;;19.20;64.40;;;;;;5034975;28;1275;-68
2022/05/14 09:51:51;;;;;;;;;;;19.20;64.40;;;;;;5034145;28;889;-68
2022/05/14 09:54:26;;;;;;;;;;;19.20;64.40;;;;;;5035334;28;813;-68
2022/05/14 09:57:11;;;;;;;;;;;19.20;64.40;;;;;;5034252;28;1957;-69
2022/05/14 09:59:47;;;;;;;;;;;19.20;64.40;;;;;;5030909;28;2205;-68
2022/05/14 10:02:31;;;;;;;;;;;19.30;64.50;;;;;;5011485;28;1437;-68
2022/05/14 10:05:20;;;;;;;;;;;19.30;64.50;;;;;;5034274;28;2288;-68
2022/05/14 10:07:47;;;;;;;;;;;19.30;64.50;;;;;;5028860;28;1452;-69
2022/05/14 10:10:22;;;;;;;;;;;19.30;64.50;;;;;;5016719;28;1168;-68
2022/05/14 10:12:52;;;;;;;;;;;19.20;64.40;;;;;;5034731;28;1059;-69
2022/05/14 10:15:27;;;;;;;;;;;19.20;64.40;;;;;;5034042;28;817;-68
2022/05/14 10:18:05;;;;;;;;;;;19.20;64.40;;;;;;5035312;28;1945;-69
2022/05/14 10:20:34;;;;;;;;;;;19.20;64.40;;;;;;5049159;23;2078;-70
2022/05/14 10:29:02;;;;;;;;;;;19.20;64.40;;;;;;5047905;28;1270;-70
2022/05/14 10:31:46;;;;;;;;;;;19.20;64.40;;;;;;5033031;28;1299;-70
2022/05/14 10:34:16;;;;;;;;;;;19.20;64.50;;;;;;5034324;28;829;-70
2022/05/14 10:36:47;;;;;;;;;;;19.20;64.50;;;;;;5034714;28;1918;-70
2022/05/14 10:39:14;;;;;;;;;;;19.20;64.50;;;;;;5033110;28;1361;-70
2022/05/14 10:41:43;;;;;;;;;;;19.20;64.00;;;;;;5032826;28;947;-70
2022/05/14 10:44:14;;;;;;;;;;;19.30;62.50;;;;;;5034667;28;824;-70
2022/05/14 10:46:39;;;;;;;;;;;19.30;63.00;;;;;;5034470;28;1101;-70
2022/05/14 10:49:22;;;;;;;;;;;19.30;62.70;;;;;;5032670;28;1313;-69
2022/05/14 10:51:48;;;;;;;;;;;19.30;60.80;;;;;;5033095;28;840;-70
2022/05/14 10:54:21;;;;;;;;;;;19.30;58.90;;;;;;5032876;28;899;-70
2022/05/14 10:56:50;;;;;;;;;;;19.30;58.20;;;;;;5032828;28;1902;-70
2022/05/14 10:59:16;;;;;;;;;;;19.30;57.70;;;;;;5033667;28;1217;-70
2022/05/14 11:01:53;;;;;;;;;;;19.40;57.40;;;;;;5016173;28;1449;-70
2022/05/14 11:04:22;;;;;;;;;;;19.40;57.20;;;;;;5033563;28;897;-69
2022/05/14 11:06:49;;;;;;;;;;;19.40;56.40;;;;;;5032696;28;1138;-69
2022/05/14 11:09:18;;;;;;;;;;;19.40;57.10;;;;;;5031980;28;1199;-69
2022/05/14 11:11:49;;;;;;;;;;;19.40;56.60;;;;;;5033072;28;1136;-70
2022/05/14 11:14:14;;;;;;;;;;;19.40;55.80;;;;;;5032622;28;860;-70
2022/05/14 11:16:44;;;;;;;;;;;19.40;55.60;;;;;;5033843;28;1891;-70
2022/05/14 11:19:11;;;;;;;;;;;19.40;55.70;;;;;;5017799;28;1221;-69
2022/05/14 11:21:38;;;;;;;;;;;19.40;55.70;;;;;;5015727;28;1202;-70
2022/05/14 11:24:03;;;;;;;;;;;19.40;55.30;;;;;;5012749;28;848;-70
2022/05/14 11:26:29;;;;;;;;;;;19.40;55.00;;;;;;5022008;28;1123;-70
2022/05/14 11:28:59;;;;;;;;;;;19.50;55.10;;;;;;5033560;28;1235;-70
2022/05/14 11:31:25;;;;;;;;;;;19.50;55.30;;;;;;5015310;28;1247;-70
2022/05/14 11:33:51;;;;;;;;;;;19.50;55.10;;;;;;5031783;28;1102;-70
2022/05/14 11:36:18;;;;;;;;;;;19.50;54.60;;;;;;5033847;28;1955;-69
2022/05/14 11:38:45;;;;;;;;;;;19.50;54.40;;;;;;5032106;28;1220;-70
2022/05/14 11:41:11;;;;;;;;;;;19.50;54.40;;;;;;5033031;28;888;-69
2022/05/14 11:43:43;;;;;;;;;;;19.50;54.50;;;;;;5031668;28;1031;-70
2022/05/14 11:46:27;;;;;;;;;;;19.50;55.40;;;;;;5033364;28;841;-70
2022/05/14 11:48:57;;;;;;;;;;;19.50;55.60;;;;;;5032781;28;1177;-69
2022/05/14 11:51:33;;;;;;;;;;;19.50;55.10;;;;;;5031705;28;927;-70
2022/05/14 11:54:04;;;;;;;;;;;19.50;54.40;;;;;;5032940;28;931;-70
2022/05/14 11:56:29;;;;;;;;;;;19.50;55.10;;;;;;5032012;28;1952;-70
2022/05/14 11:59:15;;;;;;;;;;;19.50;54.70;;;;;;5031346;28;1213;-71
2022/05/14 12:01:41;;;;;;;;;;;19.50;54.60;;;;;;5032753;28;1119;-70
2022/05/14 12:04:13;;;;;;;;;;;19.50;54.70;;;;;;5031880;28;834;-71
2022/05/14 12:06:42;;;;;;;;;;;19.50;54.90;;;;;;5032094;28;1110;-71
2022/05/14 12:09:18;;;;;;;;;;;19.60;54.70;;;;;;5031017;28;1233;-71
2022/05/14 12:11:48;;;;;;;;;;;19.60;54.40;;;;;;5031763;28;1164;-71
2022/05/14 12:14:15;;;;;;;;;;;19.60;54.20;;;;;;5031695;28;860;-70
2022/05/14 12:16:41;;;;;;;;;;;19.60;54.20;;;;;;5031875;28;1906;-70
2022/05/14 12:19:20;;;;;;;;;;;19.60;54.10;;;;;;5017334;28;1223;-70
2022/05/14 12:21:54;;;;;;;;;;;19.60;55.10;;;;;;5013127;28;1060;-70
2022/05/14 12:24:23;;;;;;;;;;;19.60;55.30;;;;;;5011846;28;1237;-70
2022/05/14 12:26:49;;;;;;;;;;;19.60;55.50;;;;;;5024032;28;1115;-70
2022/05/14 12:29:22;;;;;;;;;;;19.60;55.40;;;;;;5031930;28;1302;-70
2022/05/14 12:34:39;;;;;;;;;;;19.60;55.50;;;;;;5031624;28;675;-70
2022/05/14 12:37:14;;;;;;;;;;;19.60;55.90;;;;;;5031468;28;1906;-70
2022/05/14 12:39:40;;;;;;;;;;;19.60;56.00;;;;;;5030676;28;1228;-70
2022/05/14 12:42:06;;;;;;;;;;;19.60;55.30;;;;;;5030776;28;1315;-70
2022/05/14 12:44:33;;;;;;;;;;;19.50;55.50;;;;;;5032497;28;944;-71
2022/05/14 12:46:58;;;;;;;;;;;19.60;55.70;;;;;;5031584;28;821;-69
2022/05/14 12:49:25;;;;;;;;;;;19.60;55.70;;;;;;5030462;28;1239;-70
2022/05/14 12:51:54;;;;;;;;;;;19.60;56.90;;;;;;5030944;28;828;-71
2022/05/14 12:54:27;;;;;;;;;;;19.50;56.60;;;;;;5031328;28;938;-70
2022/05/14 12:56:53;;;;;;;;;;;19.50;57.00;;;;;;5032342;28;1898;-71
2022/05/14 12:59:19;;;;;;;;;;;19.60;56.70;;;;;;5013803;28;1266;-70
2022/05/14 13:01:44;;;;;;;;;;;19.50;56.40;;;;;;5030974;28;825;-70
2022/05/14 13:04:10;;;;;;;;;;;19.50;56.40;;;;;;5031030;28;714;-70
2022/05/14 13:06:36;;;;;;;;;;;19.60;56.60;;;;;;5031336;28;842;-71
2022/05/14 13:09:05;;;;;;;;;;;19.50;56.10;;;;;;5030941;28;1229;-70
2022/05/14 13:11:31;;;;;;;;;;;19.60;55.80;;;;;;5030401;28;875;-71
2022/05/14 13:14:09;;;;;;;;;;;19.60;55.70;;;;;;5030947;28;1106;-71
2022/05/14 13:16:34;;;;;;;;;;;19.60;55.70;;;;;;5031129;28;1965;-71
2022/05/14 13:19:17;;;;;;;;;;;19.60;56.30;;;;;;5021918;28;1276;-70
2022/05/14 13:21:47;;;;;;;;;;;19.60;56.10;;;;;;5014116;28;1195;-71
2022/05/14 13:24:23;;;;;;;;;;;19.60;56.00;;;;;;5030417;28;907;-71
2022/05/14 13:26:49;;;;;;;;;;;19.60;56.50;;;;;;5034240;28;1151;-70
2022/05/14 13:29:16;;;;;;;;;;;19.60;56.20;;;;;;5033879;28;1297;-71
2022/05/14 13:31:42;;;;;;;;;;;19.60;56.50;;;;;;5018106;28;1261;-71
2022/05/14 13:37:07;;;;;;;;;;;19.60;56.60;;;;;;5036724;28;1969;-71
2022/05/14 13:39:36;;;;;;;;;;;19.60;56.10;;;;;;5035262;28;1248;-71
2022/05/14 13:42:01;;;;;;;;;;;19.60;55.30;;;;;;5034043;28;871;-71
2022/05/14 13:44:27;;;;;;;;;;;19.60;55.70;;;;;;5034202;28;851;-71
2022/05/14 13:46:56;;;;;;;;;;;19.60;56.20;;;;;;5033792;28;909;-71
2022/05/14 13:49:22;;;;;;;;;;;19.60;56.30;;;;;;5051185;28;1310;-71
2022/05/14 13:51:51;;;;;;;;;;;19.60;55.60;;;;;;5033733;28;1031;-70
2022/05/14 13:54:27;;;;;;;;;;;19.60;55.60;;;;;;5036735;28;837;-71
2022/05/14 13:56:58;;;;;;;;;;;19.60;55.20;;;;;;5037643;28;1950;-71
2022/05/14 13:59:25;;;;;;;;;;;19.60;55.10;;;;;;5036695;28;1331;-70
2022/05/14 14:01:51;;;;;;;;;;;19.60;55.00;;;;;;5055234;28;931;-71
2022/05/14 14:04:18;;;;;;;;;;;19.60;55.60;;;;;;5037452;28;869;-70
2022/05/14 14:06:43;;;;;;;;;;;19.60;55.40;;;;;;5037044;28;1097;-71
2022/05/14 14:09:09;;;;;;;;;;;19.60;54.90;;;;;;5036982;28;1310;-71
2022/05/14 14:11:34;;;;;;;;;;;19.60;54.50;;;;;;5036557;28;793;-71
2022/05/14 14:14:00;;;;;;;;;;;19.60;54.60;;;;;;5054928;28;813;-71
2022/05/14 14:16:25;;;;;;;;;;;19.60;53.80;;;;;;5054762;28;1983;-71
2022/05/14 14:18:51;;;;;;;;;;;19.60;54.00;;;;;;5025058;28;1326;-70
2022/05/14 14:21:16;;;;;;;;;;;19.60;54.30;;;;;;5034469;28;1179;-71
2022/05/14 14:23:42;;;;;;;;;;;19.60;54.60;;;;;;5032938;28;1890;-71
2022/05/14 14:26:08;;;;;;;;;;;19.60;54.10;;;;;;5018653;28;1008;-71
2022/05/14 14:28:33;;;;;;;;;;;19.60;54.40;;;;;;5024857;28;1318;-70
2022/05/14 14:31:03;;;;;;;;;;;19.60;54.70;;;;;;5033048;28;1098;-71
2022/05/14 14:33:29;;;;;;;;;;;19.60;54.10;;;;;;5034511;28;880;-71
2022/05/14 14:35:54;;;;;;;;;;;19.60;55.30;;;;;;5016919;28;1473;-71
2022/05/14 14:38:20;;;;;;;;;;;19.60;55.00;;;;;;5016758;28;1403;-71
2022/05/14 14:40:46;;;;;;;;;;;19.60;55.30;;;;;;5033820;28;1082;-70
2022/05/14 14:43:11;;;;;;;;;;;19.60;55.80;;;;;;5033124;28;841;-70
2022/05/14 14:45:37;;;;;;;;;;;19.60;55.60;;;;;;5034652;28;928;-70
2022/05/14 14:48:03;;;;;;;;;;;19.60;56.00;;;;;;5033533;28;901;-70
2022/05/14 14:50:29;;;;;;;;;;;19.60;55.40;;;;;;5032337;28;1276;-70
2022/05/14 14:52:54;;;;;;;;;;;19.60;55.60;;;;;;5033387;28;841;-70
2022/05/14 14:55:20;;;;;;;;;;;19.60;55.30;;;;;;5032994;28;932;-71
2022/05/14 14:57:46;;;;;;;;;;;19.60;55.40;;;;;;5032931;28;1947;-72
2022/05/14 15:00:12;;;;;;;;;;;19.60;54.60;;;;;;5032243;28;1236;-72
2022/05/14 15:02:40;;;;;;;;;;;19.60;54.10;;;;;;5033115;28;923;-71